Butes — A8UR6 — position and weather

sailwx.info

Track history (hours):
 
Tides and Currents Weather Stations Pressure Air Temp Water Temp Dewpoint Dewpoint Depression Visibility Wind Speed Wind Dir Waves Ship Positions

Butes

Last reported at 2014-Dec-19 17:08 UTC. Time now 2014-Dec-21 15:48 UTC.
Position N 36°40' E 014°23'.

Length 90 m; draft 5.6 m.

Type: Cargo ship. MMSI: 636091937.

Date/timePositionNaut miles runAvg speedWind from/ knotsBaromVisibWave heightAir tempDewpointWater temp
2014-Dec-19 17:08N 36°40' E 014°23'5 8.3
2014-Dec-19 16:33N 36°42' E 014°17'12 8.1
2014-Dec-19 15:03N 36°45' E 014°02'4 8.3
2014-Dec-19 14:33N 36°45' E 013°57'  
2014-Dec-14 20:33N 35°56' W 005°16'3 2.5
2014-Dec-14 19:33N 35°54' W 005°18'0 0.0
2014-Dec-14 18:33N 35°54' W 005°18'0 0.0
2014-Dec-14 17:33N 35°54' W 005°18'0 0.1
2014-Dec-14 16:33N 35°54' W 005°18'6 6.0
2014-Dec-14 15:33N 35°57' W 005°24'  
Track history (hours):
 
Tides and Currents Weather Stations Pressure Air Temp Water Temp Dewpoint Dewpoint Depression Visibility Wind Speed Wind Dir Waves Ship Positions

Butes

Last reported at 2014-Dec-19 17:08 UTC. Time now 2014-Dec-21 15:48 UTC.
Position N 36°40' E 014°23'.

Length 90 m; draft 5.6 m.

Type: Cargo ship. MMSI: 636091937.

Date/timePositionNaut miles runAvg speedWind from/ knotsBaromVisibWave heightAir tempDewpointWater temp
2014-Dec-19 17:08N 36°40' E 014°23'5 8.3
2014-Dec-19 16:33N 36°42' E 014°17'12 8.1
2014-Dec-19 15:03N 36°45' E 014°02'4 8.3
2014-Dec-19 14:33N 36°45' E 013°57'  
2014-Dec-14 20:33N 35°56' W 005°16'3 2.5
2014-Dec-14 19:33N 35°54' W 005°18'0 0.0
2014-Dec-14 18:33N 35°54' W 005°18'0 0.0
2014-Dec-14 17:33N 35°54' W 005°18'0 0.1
2014-Dec-14 16:33N 35°54' W 005°18'6 6.0
2014-Dec-14 15:33N 35°57' W 005°24'  

Dump ship's entire track history